Time;durP1;ratioP1;P1;durP2;ratioP2;P2;SDS_P1;SDS_P2;PMS_P1;PMS_P2;Temp;Humidity;BMP_temperature;BMP_pressure;BME280_temperature;BME280_humidity;BME280_pressure;Samples;Min_cycle;Max_cycle;Signal;HPM_P1;HPM_P2
2022/04/23 00:01:01;;;;;;;9.52;4.70;;;11.10;99.90;;;;;;5090714;28;20079;-78
2022/04/23 00:03:27;;;;;;;9.43;5.00;;;10.70;99.90;;;;;;5091050;28;20086;-78
2022/04/23 00:05:53;;;;;;;7.47;4.10;;;10.70;99.90;;;;;;5073503;28;20150;-78
2022/04/23 00:08:19;;;;;;;9.60;4.20;;;11.80;99.90;;;;;;5057935;28;20046;-78
2022/04/23 00:10:45;;;;;;;9.88;4.90;;;10.60;99.90;;;;;;5056109;28;20499;-78
2022/04/23 00:13:11;;;;;;;8.20;4.25;;;10.60;99.90;;;;;;5109097;28;20058;-78
2022/04/23 00:15:39;;;;;;;13.50;5.25;;;10.50;99.90;;;;;;5090028;28;20071;-78
2022/04/23 00:18:10;;;;;;;8.95;4.38;;;10.60;99.90;;;;;;5090842;28;20049;-78
2022/04/23 00:20:38;;;;;;;12.45;4.95;;;10.40;99.90;;;;;;5109763;28;20131;-78
2022/04/23 00:23:05;;;;;;;10.60;4.72;;;10.40;99.90;;;;;;5089207;28;20048;-78
2022/04/23 00:25:31;;;;;;;9.63;5.03;;;10.40;99.90;;;;;;5108900;28;20516;-78
2022/04/23 00:28:00;;;;;;;8.48;5.07;;;10.30;99.90;;;;;;5107810;28;20705;-78
2022/04/23 00:30:26;;;;;;;8.60;5.30;;;10.30;99.90;;;;;;5091729;28;20043;-78
2022/04/23 00:32:52;;;;;;;17.17;5.80;;;10.20;99.90;;;;;;5059467;28;20104;-78
2022/04/23 00:35:19;;;;;;;10.52;5.57;;;10.20;99.90;;;;;;5091166;28;20051;-78
2022/04/23 00:37:45;;;;;;;10.75;5.60;;;10.20;99.90;;;;;;5090274;28;20118;-78
2022/04/23 00:40:17;;;;;;;11.90;5.05;;;10.10;99.90;;;;;;5072155;28;20491;-78
2022/04/23 00:42:51;;;;;;;9.23;6.18;;;10.10;99.90;;;;;;5086531;28;20534;-78
2022/04/23 00:45:17;;;;;;;10.55;6.13;;;10.10;99.90;;;;;;5069048;28;20059;-78
2022/04/23 00:47:43;;;;;;;12.73;5.18;;;10.20;99.90;;;;;;5086532;28;20044;-78
2022/04/23 00:50:10;;;;;;;7.90;5.82;;;10.10;99.90;;;;;;5069696;28;20051;-78
2022/04/23 00:52:36;;;;;;;10.30;5.97;;;10.10;99.90;;;;;;5085947;28;20040;-78
2022/04/23 00:55:06;;;;;;;12.07;6.00;;;10.10;99.90;;;;;;5088352;28;20117;-78
2022/04/23 00:57:33;;;;;;;11.20;6.22;;;10.00;99.90;;;;;;5068326;28;20048;-79
2022/04/23 01:00:03;;;;;;;8.35;5.55;;;10.10;99.90;;;;;;5069979;28;20411;-78
2022/04/23 01:02:29;;;;;;;9.63;5.70;;;10.10;99.90;;;;;;5085761;28;20064;-78
2022/04/23 01:04:54;;;;;;;12.35;6.55;;;10.20;99.90;;;;;;5069212;28;20079;-78
2022/04/23 01:07:21;;;;;;;11.32;6.07;;;10.10;99.90;;;;;;5069389;28;20040;-78
2022/04/23 01:09:48;;;;;;;8.77;6.05;;;10.10;99.90;;;;;;5067434;28;20051;-78
2022/04/23 01:12:15;;;;;;;11.10;6.18;;;10.20;99.90;;;;;;5086494;28;20448;-78
2022/04/23 01:15:01;;;;;;;10.63;6.30;;;10.20;99.90;;;;;;5085481;28;20043;-79
2022/04/23 01:17:27;;;;;;;9.85;5.95;;;10.20;99.90;;;;;;5087603;28;20113;-78
2022/04/23 01:19:53;;;;;;;11.43;6.03;;;10.20;99.90;;;;;;5069207;28;20036;-78
2022/04/23 01:22:19;;;;;;;13.27;6.38;;;10.20;99.90;;;;;;5085673;28;20040;-79
2022/04/23 01:24:45;;;;;;;14.32;6.82;;;10.90;99.90;;;;;;5087714;28;20097;-78
2022/04/23 01:27:10;;;;;;;12.98;6.97;;;10.10;99.90;;;;;;5068092;28;20083;-77
2022/04/23 01:29:38;;;;;;;15.93;6.22;;;10.10;99.90;;;;;;5087390;28;20133;-77
2022/04/23 01:32:04;;;;;;;12.32;7.25;;;10.10;99.90;;;;;;5085120;28;20044;-77
2022/04/23 01:34:31;;;;;;;11.35;6.82;;;10.10;99.90;;;;;;5086254;28;20123;-77
2022/04/23 01:36:57;;;;;;;10.48;6.55;;;10.10;99.90;;;;;;5069277;28;20245;-77
2022/04/23 01:39:23;;;;;;;10.32;6.72;;;11.10;99.90;;;;;;5085655;28;20043;-77
2022/04/23 01:41:49;;;;;;;9.43;6.28;;;10.00;99.90;;;;;;5088166;28;20052;-78
2022/04/23 01:44:15;;;;;;;14.60;7.38;;;10.00;99.90;;;;;;5106241;28;20558;-77
2022/04/23 01:46:40;;;;;;;10.48;6.20;;;10.00;99.90;;;;;;5088560;28;20052;-77
2022/04/23 01:49:06;;;;;;;11.57;6.35;;;10.70;99.90;;;;;;5070989;28;20063;-77
2022/04/23 01:51:32;;;;;;;10.23;6.13;;;10.90;99.90;;;;;;5107242;28;20036;-77
2022/04/23 01:53:58;;;;;;;9.70;6.07;;;9.90;99.90;;;;;;5071478;28;20047;-78
2022/04/23 01:56:24;;;;;;;11.25;7.22;;;9.90;99.90;;;;;;5106504;28;20267;-78
2022/04/23 01:58:50;;;;;;;14.77;7.88;;;9.90;99.90;;;;;;5089233;28;20066;-77
2022/04/23 02:01:17;;;;;;;20.27;7.72;;;10.00;99.90;;;;;;5087821;28;20499;-78
2022/04/23 02:03:45;;;;;;;12.98;8.15;;;9.90;99.90;;;;;;5107300;28;20089;-78
2022/04/23 02:06:12;;;;;;;11.70;6.60;;;9.90;99.90;;;;;;5071277;28;20048;-78
2022/04/23 02:08:38;;;;;;;13.27;7.88;;;10.00;99.90;;;;;;5071718;28;20579;-77
2022/04/23 02:11:04;;;;;;;15.60;7.43;;;9.80;99.90;;;;;;5088527;28;20087;-77
2022/04/23 02:13:31;;;;;;;14.88;7.88;;;9.80;99.90;;;;;;5089295;28;20047;-78
2022/04/23 02:15:57;;;;;;;11.73;7.47;;;9.80;99.90;;;;;;5112839;28;20036;-79
2022/04/23 02:18:23;;;;;;;16.63;7.57;;;9.70;99.90;;;;;;5074550;28;20580;-78
2022/04/23 02:20:49;;;;;;;14.80;8.40;;;9.70;99.90;;;;;;5088528;28;20043;-77
2022/04/23 02:23:15;;;;;;;14.38;7.60;;;9.70;99.90;;;;;;5105674;28;20048;-77
2022/04/23 02:25:42;;;;;;;12.88;7.22;;;9.70;99.90;;;;;;5106901;28;20123;-78
2022/04/23 02:28:08;;;;;;;12.23;7.70;;;9.60;99.90;;;;;;5106176;28;20044;-78
2022/04/23 02:30:33;;;;;;;12.77;8.02;;;9.60;99.90;;;;;;5071194;28;20097;-77
2022/04/23 02:32:59;;;;;;;15.82;7.25;;;9.60;99.90;;;;;;5088477;28;20066;-78
2022/04/23 02:35:25;;;;;;;10.05;7.43;;;9.50;99.90;;;;;;5070144;28;20252;-78
2022/04/23 02:38:01;;;;;;;14.48;7.45;;;9.50;99.90;;;;;;5071617;28;20232;-78
2022/04/23 02:40:28;;;;;;;11.05;6.78;;;9.40;99.90;;;;;;5071544;28;20051;-78
2022/04/23 02:42:55;;;;;;;16.67;7.65;;;9.40;99.90;;;;;;5088293;28;20260;-77
2022/04/23 02:45:21;;;;;;;15.73;7.75;;;9.40;99.90;;;;;;5106537;28;20047;-78
2022/04/23 02:47:53;;;;;;;12.23;7.50;;;9.40;99.90;;;;;;5070684;28;20132;-78
2022/04/23 02:50:37;;;;;;;13.53;7.90;;;9.30;99.90;;;;;;5089071;28;20499;-78
2022/04/23 02:53:04;;;;;;;13.43;7.72;;;9.40;99.90;;;;;;5070058;28;20364;-78
2022/04/23 02:55:31;;;;;;;14.52;7.38;;;9.30;99.90;;;;;;5088402;28;20040;-78
2022/04/23 02:58:08;;;;;;;19.65;7.80;;;9.30;99.90;;;;;;5070975;28;20043;-78
2022/04/23 03:00:41;;;;;;;12.18;6.82;;;9.30;99.90;;;;;;5087583;28;20047;-78
2022/04/23 03:03:07;;;;;;;7.55;4.95;;;9.30;99.90;;;;;;5072666;28;20075;-79
2022/04/23 03:05:33;;;;;;;12.40;7.07;;;9.30;99.90;;;;;;5104920;28;20184;-79
2022/04/23 03:08:02;;;;;;;12.95;7.80;;;9.30;99.90;;;;;;5071275;28;20079;-79
2022/04/23 03:10:29;;;;;;;14.30;7.10;;;9.30;99.90;;;;;;5069989;28;20116;-79
2022/04/23 03:12:57;;;;;;;12.85;7.22;;;9.30;99.90;;;;;;5106277;28;20390;-79
2022/04/23 03:15:26;;;;;;;10.25;7.32;;;9.30;99.90;;;;;;5088077;28;20058;-79
2022/04/23 03:18:05;;;;;;;16.55;7.32;;;9.30;99.90;;;;;;5086793;28;20491;-77
2022/04/23 03:20:32;;;;;;;11.48;7.50;;;9.20;99.90;;;;;;5088176;28;20321;-77
2022/04/23 03:22:57;;;;;;;12.40;7.63;;;9.20;99.90;;;;;;5087060;28;20039;-78
2022/04/23 03:25:23;;;;;;;10.48;6.55;;;9.20;99.90;;;;;;5088209;28;20538;-78
2022/04/23 03:27:50;;;;;;;11.20;7.72;;;9.30;99.90;;;;;;5054235;28;20090;-77
2022/04/23 03:30:16;;;;;;;9.68;6.78;;;9.30;99.90;;;;;;5087701;28;20127;-77
2022/04/23 03:32:42;;;;;;;11.23;6.57;;;9.30;99.90;;;;;;5108904;28;20469;-77
2022/04/23 03:35:08;;;;;;;12.45;7.10;;;9.30;99.90;;;;;;5108520;28;20054;-78
2022/04/23 03:37:37;;;;;;;8.30;6.75;;;9.30;99.90;;;;;;5110036;28;20383;-78
2022/04/23 03:40:08;;;;;;;9.50;6.95;;;9.30;99.90;;;;;;5108670;28;20081;-78
2022/04/23 03:42:37;;;;;;;8.60;6.22;;;9.30;99.90;;;;;;5109457;28;20138;-78
2022/04/23 03:45:04;;;;;;;8.60;6.22;;;9.40;99.90;;;;;;5109415;28;20051;-78
2022/04/23 03:47:31;;;;;;;8.68;6.03;;;9.40;99.90;;;;;;5090771;28;20499;-78
2022/04/23 03:49:57;;;;;;;10.75;6.78;;;9.30;99.90;;;;;;5109826;28;20475;-78
2022/04/23 03:52:23;;;;;;;9.48;6.68;;;9.40;99.90;;;;;;5108836;28;20050;-78
2022/04/23 03:54:49;;;;;;;10.02;7.10;;;9.30;99.90;;;;;;5110751;28;20044;-79
2022/04/23 03:57:14;;;;;;;8.25;6.25;;;9.30;99.90;;;;;;5073785;28;20127;-79
2022/04/23 03:59:40;;;;;;;11.07;6.68;;;9.40;99.90;;;;;;5074666;28;20100;-79
2022/04/23 04:02:06;;;;;;;10.35;6.55;;;9.30;99.90;;;;;;5090664;28;20471;-78
2022/04/23 04:04:34;;;;;;;10.40;6.88;;;9.30;99.90;;;;;;5108574;28;20048;-78
2022/04/23 04:07:01;;;;;;;8.88;6.35;;;10.50;99.90;;;;;;5074564;28;20051;-78
2022/04/23 04:09:27;;;;;;;13.32;7.13;;;9.30;99.90;;;;;;5072581;28;20177;-79
2022/04/23 04:12:02;;;;;;;10.98;7.05;;;9.20;99.90;;;;;;5090604;28;20048;-79
2022/04/23 04:14:34;;;;;;;11.82;6.97;;;9.20;99.90;;;;;;5072851;28;20058;-79
2022/04/23 04:17:01;;;;;;;11.45;6.78;;;9.50;99.90;;;;;;5090407;28;20047;-79
2022/04/23 04:19:28;;;;;;;9.75;6.68;;;10.00;99.90;;;;;;5056867;28;20051;-79
2022/04/23 04:21:55;;;;;;;8.60;6.70;;;9.20;99.90;;;;;;5089132;28;20043;-78
2022/04/23 04:24:20;;;;;;;10.98;6.72;;;9.20;99.90;;;;;;5090504;28;20043;-78
2022/04/23 04:26:49;;;;;;;11.93;7.22;;;9.40;99.90;;;;;;5055089;28;20053;-78
2022/04/23 04:29:14;;;;;;;12.13;7.03;;;9.10;99.90;;;;;;5074245;28;20109;-78
2022/04/23 04:31:49;;;;;;;13.63;7.85;;;9.10;99.90;;;;;;5056283;28;20290;-78
2022/04/23 04:34:30;;;;;;;9.13;6.22;;;9.10;99.90;;;;;;5089809;28;20118;-79
2022/04/23 04:37:04;;;;;;;10.95;7.43;;;9.10;99.90;;;;;;5090584;28;20044;-77
2022/04/23 04:39:31;;;;;;;9.23;6.90;;;9.10;99.90;;;;;;5072270;28;20555;-78
2022/04/23 04:41:57;;;;;;;11.73;7.45;;;9.10;99.90;;;;;;5073303;28;20542;-78
2022/04/23 04:44:22;;;;;;;10.43;7.03;;;9.00;99.90;;;;;;5088453;28;20040;-78
2022/04/23 04:46:48;;;;;;;11.07;6.90;;;9.10;99.90;;;;;;5089797;28;20055;-78
2022/04/23 04:49:14;;;;;;;11.63;7.68;;;9.10;99.90;;;;;;5089967;28;20035;-78
2022/04/23 04:51:40;;;;;;;8.50;6.00;;;9.00;99.90;;;;;;5072265;28;20122;-78
2022/04/23 04:54:08;;;;;;;17.27;7.20;;;9.00;99.90;;;;;;5090066;28;20091;-78
2022/04/23 04:56:34;;;;;;;9.90;7.05;;;9.00;99.90;;;;;;5071889;28;20044;-79
2022/04/23 04:59:01;;;;;;;14.73;6.78;;;9.80;99.90;;;;;;5108494;28;20111;-78
2022/04/23 05:01:28;;;;;;;8.70;6.70;;;9.00;99.90;;;;;;5072458;28;20506;-77
2022/04/23 05:03:54;;;;;;;10.50;7.45;;;9.20;99.90;;;;;;5107839;28;20464;-79
2022/04/23 05:06:20;;;;;;;10.13;7.32;;;9.10;99.90;;;;;;5089477;28;20097;-78
2022/04/23 05:08:46;;;;;;;9.18;6.53;;;9.10;99.90;;;;;;5088901;28;20531;-79
2022/04/23 05:11:12;;;;;;;10.50;7.13;;;10.30;99.90;;;;;;5090055;28;20046;-78
2022/04/23 05:13:40;;;;;;;12.90;6.72;;;9.10;99.90;;;;;;5106246;28;20043;-79
2022/04/23 05:16:07;;;;;;;8.57;6.93;;;9.20;99.90;;;;;;5108091;28;20082;-78
2022/04/23 05:18:34;;;;;;;10.57;6.18;;;9.20;99.90;;;;;;5107014;28;20084;-79
2022/04/23 05:21:00;;;;;;;9.93;6.03;;;9.70;99.90;;;;;;5107542;28;20126;-78
2022/04/23 05:23:26;;;;;;;11.77;7.20;;;9.30;99.90;;;;;;5107264;28;20894;-78
2022/04/23 05:25:52;;;;;;;9.23;6.25;;;9.40;99.90;;;;;;5106768;28;20048;-78
2022/04/23 05:28:18;;;;;;;10.40;6.82;;;9.40;99.90;;;;;;5089736;28;20187;-79
2022/04/23 05:30:44;;;;;;;10.07;6.80;;;9.80;99.90;;;;;;5088214;28;20071;-78
2022/04/23 05:33:10;;;;;;;9.63;5.90;;;9.50;99.90;;;;;;5108972;28;20052;-79
2022/04/23 05:35:36;;;;;;;8.73;5.90;;;10.90;99.90;;;;;;5109737;28;20046;-79
2022/04/23 05:38:02;;;;;;;9.18;6.18;;;10.70;99.90;;;;;;5089791;28;20387;-78
2022/04/23 05:40:28;;;;;;;10.02;5.90;;;9.70;99.90;;;;;;5107212;28;20180;-79
2022/04/23 05:42:57;;;;;;;8.43;6.32;;;9.70;99.90;;;;;;5087998;28;20160;-79
2022/04/23 05:45:24;;;;;;;9.60;6.15;;;9.70;99.90;;;;;;5088808;28;20052;-79
2022/04/23 05:47:49;;;;;;;9.73;6.25;;;9.80;99.90;;;;;;5106006;28;20474;-79
2022/04/23 05:50:15;;;;;;;9.77;5.57;;;10.40;99.90;;;;;;5107484;28;20039;-81
2022/04/23 05:52:41;;;;;;;10.57;5.93;;;9.90;99.90;;;;;;5106426;28;20035;-81
2022/04/23 05:55:08;;;;;;;12.07;5.97;;;9.90;99.90;;;;;;5055217;28;20264;-82
2022/04/23 05:57:34;;;;;;;9.65;6.32;;;10.00;99.90;;;;;;5087948;28;20638;-81
2022/04/23 06:00:01;;;;;;;8.73;5.90;;;10.00;99.90;;;;;;5087435;28;20050;-83
2022/04/23 06:02:26;;;;;;;8.40;5.63;;;10.10;99.90;;;;;;5107467;28;20031;-83
2022/04/23 06:04:52;;;;;;;13.90;6.05;;;10.20;99.90;;;;;;5086730;28;20520;-82
2022/04/23 06:07:18;;;;;;;11.93;6.18;;;11.50;99.90;;;;;;5071632;28;20135;-82
2022/04/23 06:09:45;;;;;;;9.77;6.00;;;10.30;99.90;;;;;;5087675;28;20051;-83
2022/04/23 06:12:12;;;;;;;11.02;5.85;;;10.30;99.90;;;;;;5106880;28;20039;-83
2022/04/23 06:14:38;;;;;;;11.10;6.22;;;10.40;99.90;;;;;;5106730;28;20044;-83
2022/04/23 06:17:08;;;;;;;8.32;5.65;;;10.50;99.90;;;;;;5105918;28;20052;-84
2022/04/23 06:19:34;;;;;;;9.07;6.03;;;10.60;99.90;;;;;;5107341;28;20384;-82
2022/04/23 06:22:00;;;;;;;10.15;6.75;;;10.60;99.90;;;;;;5086675;28;20050;-84
2022/04/23 06:24:26;;;;;;;11.40;6.85;;;10.60;99.90;;;;;;5106418;28;20043;-81
2022/04/23 06:26:52;;;;;;;7.60;5.65;;;10.70;99.90;;;;;;5105445;28;20136;-83
2022/04/23 06:29:17;;;;;;;8.73;6.07;;;10.70;99.90;;;;;;5088574;28;20044;-81
2022/04/23 06:31:44;;;;;;;9.30;6.43;;;10.80;99.90;;;;;;5088293;28;20044;-81
2022/04/23 06:34:10;;;;;;;8.57;6.53;;;11.00;99.90;;;;;;5087404;28;20047;-82
2022/04/23 06:36:36;;;;;;;8.32;5.75;;;10.90;99.90;;;;;;5106337;28;20051;-83
2022/04/23 06:39:03;;;;;;;8.85;6.57;;;11.00;99.90;;;;;;5069500;28;20089;-84
2022/04/23 06:41:29;;;;;;;9.60;5.93;;;12.30;99.90;;;;;;5106098;28;20047;-82
2022/04/23 06:43:54;;;;;;;9.20;6.68;;;11.10;99.90;;;;;;5084306;28;20060;-82
2022/04/23 06:46:20;;;;;;;8.07;6.25;;;11.40;99.90;;;;;;5084111;28;20040;-83
2022/04/23 06:48:46;;;;;;;9.50;7.15;;;11.20;99.90;;;;;;5084849;28;20093;-82
2022/04/23 06:51:12;;;;;;;11.30;7.28;;;12.60;99.90;;;;;;5084798;28;20083;-82
2022/04/23 06:53:38;;;;;;;7.97;6.00;;;11.40;99.90;;;;;;5085836;28;20145;-82
2022/04/23 06:56:04;;;;;;;12.43;6.32;;;11.50;99.90;;;;;;5084075;28;20032;-83
2022/04/23 06:58:30;;;;;;;10.43;6.65;;;12.60;99.90;;;;;;5084422;28;20039;-83
2022/04/23 07:00:56;;;;;;;10.43;6.60;;;12.70;99.90;;;;;;5083382;28;20040;-81
2022/04/23 07:03:22;;;;;;;7.95;6.38;;;12.50;99.90;;;;;;5086797;28;20482;-82
2022/04/23 07:05:48;;;;;;;9.07;6.55;;;11.90;99.90;;;;;;5090514;28;20077;-78
2022/04/23 07:08:13;;;;;;;10.35;6.40;;;12.00;99.90;;;;;;5090678;28;20044;-78
2022/04/23 07:10:39;;;;;;;9.90;6.72;;;12.00;99.90;;;;;;5095897;28;20044;-79
2022/04/23 07:13:05;;;;;;;9.18;6.05;;;12.20;99.90;;;;;;5091903;28;20090;-77
2022/04/23 07:15:31;;;;;;;13.80;6.30;;;12.20;99.90;;;;;;5090239;28;20042;-79
2022/04/23 07:17:57;;;;;;;9.88;6.07;;;12.20;99.90;;;;;;5089468;28;20411;-80
2022/04/23 07:20:23;;;;;;;7.90;6.68;;;12.30;99.90;;;;;;5089091;28;20046;-76
2022/04/23 07:25:35;;;;;;;8.27;6.70;;;13.40;99.90;;;;;;5088872;28;20067;-78
2022/04/23 07:28:02;;;;;;;10.80;6.03;;;12.50;99.90;;;;;;5090613;28;20036;-78
2022/04/23 07:30:29;;;;;;;7.78;5.22;;;12.60;99.90;;;;;;5088777;28;20392;-75
2022/04/23 07:32:56;;;;;;;9.63;6.43;;;12.80;99.90;;;;;;5087729;28;20098;-79
2022/04/23 07:38:13;;;;;;;7.32;5.40;;;12.90;99.90;;;;;;5087505;28;20044;-79
2022/04/23 07:40:40;;;;;;;8.00;5.90;;;13.00;99.90;;;;;;5089518;28;20141;-78
2022/04/23 07:43:12;;;;;;;7.68;5.78;;;13.00;99.90;;;;;;5102599;28;20078;-77
2022/04/23 07:45:38;;;;;;;5.95;4.85;;;13.00;99.90;;;;;;5076442;28;20086;-78
2022/04/23 07:48:08;;;;;;;7.03;5.43;;;13.10;99.90;;;;;;5092200;28;20561;-77
2022/04/23 07:50:37;;;;;;;7.38;5.53;;;13.20;99.90;;;;;;5111247;28;20108;-78
2022/04/23 07:53:05;;;;;;;7.95;5.75;;;13.30;99.90;;;;;;5094184;28;20036;-79
2022/04/23 07:55:37;;;;;;;8.88;6.57;;;13.30;99.90;;;;;;5092549;28;20042;-79
2022/04/23 07:58:06;;;;;;;6.75;5.47;;;13.40;99.90;;;;;;5113181;28;20035;-80
2022/04/23 08:00:34;;;;;;;7.22;6.05;;;13.40;99.90;;;;;;5111540;28;20035;-79
2022/04/23 08:03:04;;;;;;;6.55;5.45;;;13.50;99.90;;;;;;5112544;28;20050;-79
2022/04/23 08:05:31;;;;;;;10.27;6.07;;;13.60;99.90;;;;;;5092915;28;20044;-80
2022/04/23 08:07:57;;;;;;;11.02;5.72;;;13.80;99.90;;;;;;5075414;28;20043;-79
2022/04/23 08:10:23;;;;;;;12.18;5.75;;;13.80;99.90;;;;;;5093418;28;20044;-79
2022/04/23 08:12:49;;;;;;;7.22;6.22;;;13.90;99.50;;;;;;5092002;28;20044;-80
2022/04/23 08:15:15;;;;;;;11.20;5.88;;;13.90;98.90;;;;;;5093142;28;20066;-79
2022/04/23 08:17:41;;;;;;;8.23;6.35;;;14.10;98.60;;;;;;5092424;28;20448;-79
2022/04/23 08:20:08;;;;;;;7.82;6.32;;;14.50;97.00;;;;;;5093155;28;20047;-80
2022/04/23 08:22:34;;;;;;;10.20;6.55;;;14.80;94.90;;;;;;5092741;28;20069;-79
2022/04/23 08:25:00;;;;;;;8.07;5.80;;;15.10;93.10;;;;;;5092470;28;20127;-79
2022/04/23 08:27:26;;;;;;;9.38;6.18;;;15.20;91.70;;;;;;5093119;28;20093;-78
2022/04/23 08:32:36;;;;;;;10.00;6.38;;;15.40;90.60;;;;;;5093190;28;20454;-78
2022/04/23 08:35:04;;;;;;;7.63;6.22;;;15.70;90.40;;;;;;5092442;28;20456;-78
2022/04/23 08:37:30;;;;;;;11.45;6.60;;;15.60;89.50;;;;;;5093285;28;20036;-78
2022/04/23 08:39:55;;;;;;;8.63;6.60;;;15.70;87.70;;;;;;5110891;28;20042;-79
2022/04/23 08:42:21;;;;;;;9.70;6.45;;;15.60;85.90;;;;;;5109976;28;20052;-79
2022/04/23 08:44:47;;;;;;;9.02;6.07;;;15.80;86.10;;;;;;5111544;28;20505;-79
2022/04/23 08:47:13;;;;;;;6.85;6.15;;;15.90;84.10;;;;;;5092270;28;20616;-78
2022/04/23 08:49:42;;;;;;;8.05;6.57;;;15.90;81.20;;;;;;5111796;28;20108;-78
2022/04/23 08:52:40;;;;;;;7.95;6.03;;;15.90;76.30;;;;;;5093121;28;20100;-79
2022/04/23 08:55:07;;;;;;;10.55;6.88;;;15.80;72.70;;;;;;5084926;28;20079;-78
2022/04/23 08:57:33;;;;;;;7.35;6.40;;;15.90;82.60;;;;;;5111056;28;20035;-78
2022/04/23 09:00:00;;;;;;;8.27;6.00;;;15.90;81.30;;;;;;5090971;28;20051;-78
2022/04/23 09:02:30;;;;;;;9.65;5.78;;;15.90;81.50;;;;;;5110841;28;20048;-78
2022/04/23 09:04:56;;;;;;;6.75;5.90;;;15.80;78.00;;;;;;5091623;28;20485;-78
2022/04/23 09:07:24;;;;;;;7.25;5.57;;;15.80;79.10;;;;;;5110230;28;20048;-79
2022/04/23 09:09:52;;;;;;;8.05;6.38;;;15.70;71.40;;;;;;5110422;28;20036;-77
2022/04/23 09:12:19;;;;;;;9.27;6.38;;;15.60;76.10;;;;;;5108554;28;20119;-78
2022/04/23 09:14:45;;;;;;;6.93;5.28;;;15.40;78.20;;;;;;5110135;28;20510;-78
2022/04/23 09:25:42;;;;;;;7.60;6.40;;;15.60;77.40;;;;;;5090552;28;20474;-78
2022/04/23 09:28:21;;;;;;;7.18;5.40;;;15.60;79.50;;;;;;5090851;28;20075;-79
2022/04/23 09:30:49;;;;;;;7.32;5.80;;;15.70;71.30;;;;;;5108029;28;20043;-78
2022/04/23 09:33:15;;;;;;;7.05;5.53;;;15.70;79.60;;;;;;5108627;28;20083;-79
2022/04/23 09:36:05;;;;;;;7.40;5.68;;;15.80;77.80;;;;;;5091006;28;20059;-78
2022/04/23 09:38:31;;;;;;;11.63;6.72;;;15.80;69.20;;;;;;5090135;28;20103;-79
2022/04/23 09:40:59;;;;;;;8.70;5.75;;;15.70;73.70;;;;;;5091757;28;20452;-79
2022/04/23 09:43:29;;;;;;;7.32;5.97;;;15.80;73.80;;;;;;5108555;28;20075;-78
2022/04/23 09:46:08;;;;;;;10.23;6.75;;;15.90;76.40;;;;;;5090488;28;20452;-79
2022/04/23 09:48:37;;;;;;;8.27;5.97;;;16.20;72.80;;;;;;5091287;28;20104;-80
2022/04/23 09:51:04;;;;;;;8.30;6.07;;;16.30;75.30;;;;;;5072711;28;20040;-79
2022/04/23 09:53:30;;;;;;;7.70;6.28;;;16.40;75.10;;;;;;5091268;28;20077;-78
2022/04/23 09:56:01;;;;;;;8.00;6.72;;;16.50;73.10;;;;;;5090515;28;20564;-78
2022/04/23 09:58:29;;;;;;;6.93;5.25;;;16.50;72.40;;;;;;5109791;28;20047;-78
2022/04/23 10:00:57;;;;;;;6.85;5.28;;;16.50;71.10;;;;;;5090886;28;20054;-79
2022/04/23 10:03:28;;;;;;;6.15;5.22;;;16.70;70.20;;;;;;5108166;28;20039;-78
2022/04/23 10:05:55;;;;;;;8.38;5.68;;;16.80;67.60;;;;;;5109360;28;20090;-79
2022/04/23 10:08:26;;;;;;;7.50;5.30;;;16.80;68.30;;;;;;5072633;28;20089;-79
2022/04/23 10:11:22;;;;;;;6.72;5.18;;;16.90;67.50;;;;;;5090903;28;20330;-79
2022/04/23 10:13:53;;;;;;;9.38;4.78;;;17.00;62.10;;;;;;5090891;28;20353;-78
2022/04/23 10:16:20;;;;;;;5.10;4.13;;;17.00;63.70;;;;;;5089417;28;20131;-78
2022/04/23 10:18:46;;;;;;;6.10;4.70;;;17.10;63.90;;;;;;5109132;28;20036;-78
2022/04/23 10:21:21;;;;;;;7.40;4.80;;;17.20;63.00;;;;;;5089581;28;20035;-78
2022/04/23 10:24:22;;;;;;;10.77;4.43;;;17.20;59.20;;;;;;5110210;28;20044;-78
2022/04/23 10:26:56;;;;;;;6.32;4.68;;;17.10;58.70;;;;;;5109591;28;20075;-78
2022/04/23 10:29:23;;;;;;;7.32;4.90;;;17.20;61.60;;;;;;5087730;28;20051;-79
2022/04/23 10:32:22;;;;;;;7.38;4.53;;;16.30;59.60;;;;;;5088393;28;20524;-78
2022/04/23 10:34:48;;;;;;;5.75;4.55;;;17.10;57.60;;;;;;5027350;28;20127;-79
2022/04/23 10:37:25;;;;;;;6.20;4.53;;;17.20;60.40;;;;;;5087944;28;20047;-78
2022/04/23 10:39:50;;;;;;;6.13;4.45;;;17.20;57.80;;;;;;5090948;28;20051;-78
2022/04/23 10:42:17;;;;;;;6.93;4.65;;;17.40;59.90;;;;;;5094653;28;20066;-78
2022/04/23 10:44:44;;;;;;;5.43;4.30;;;17.50;58.60;;;;;;5079303;28;20056;-79
2022/04/23 10:47:16;;;;;;;6.15;3.83;;;17.60;58.60;;;;;;5092296;28;20055;-79
2022/04/23 10:49:42;;;;;;;5.63;4.13;;;17.80;57.50;;;;;;5110945;28;20058;-79
2022/04/23 10:52:07;;;;;;;4.80;3.72;;;17.90;58.40;;;;;;5075759;28;20093;-79
2022/04/23 10:54:40;;;;;;;6.38;4.30;;;18.00;57.80;;;;;;5091665;28;20405;-79
2022/04/23 10:57:10;;;;;;;5.03;3.67;;;18.10;55.70;;;;;;5075821;28;20047;-79
2022/04/23 10:59:38;;;;;;;6.55;4.05;;;18.10;55.40;;;;;;5090988;28;20582;-78
2022/04/23 11:02:23;;;;;;;5.45;3.60;;;18.00;55.00;;;;;;5075325;28;20058;-78
2022/04/23 11:13:31;;;;;;;5.95;4.13;;;18.30;55.00;;;;;;5110342;28;20051;-78
2022/04/23 11:16:17;;;;;;;6.55;3.50;;;18.50;54.80;;;;;;5109233;28;20064;-79
2022/04/23 11:18:44;;;;;;;3.92;3.47;;;18.60;52.80;;;;;;5091947;28;20086;-79
2022/04/23 11:21:26;;;;;;;6.90;4.00;;;18.60;53.50;;;;;;5090768;28;20058;-79
2022/04/23 11:23:54;;;;;;;4.28;3.47;;;19.10;52.80;;;;;;5109895;28;20565;-79
2022/04/23 11:26:22;;;;;;;5.18;3.88;;;18.60;53.10;;;;;;5110099;28;20421;-79
2022/04/23 11:28:57;;;;;;;3.92;3.38;;;18.70;53.30;;;;;;5109229;28;20036;-79
2022/04/23 11:31:24;;;;;;;4.80;3.45;;;18.50;52.10;;;;;;5091677;28;20130;-79
2022/04/23 11:33:55;;;;;;;5.43;3.60;;;18.90;52.50;;;;;;5108680;28;20051;-79
2022/04/23 11:36:27;;;;;;;7.25;3.25;;;18.90;52.00;;;;;;5074775;28;20100;-79
2022/04/23 11:38:54;;;;;;;5.25;3.20;;;19.00;52.00;;;;;;5091179;28;20051;-79
2022/04/23 11:41:42;;;;;;;4.32;3.60;;;19.00;51.50;;;;;;5090739;28;20054;-79
2022/04/23 11:44:45;;;;;;;6.50;2.90;;;19.10;50.00;;;;;;5075202;28;20116;-79
2022/04/23 11:47:08;;;;;;;6.45;3.20;;;19.20;51.40;;;;;;5090811;28;20399;-79
2022/04/23 11:49:34;;;;;;;3.70;3.30;;;19.20;50.70;;;;;;5091010;28;20127;-79
2022/04/23 11:52:00;;;;;;;6.88;3.20;;;19.30;50.40;;;;;;5074133;28;20150;-79
2022/04/23 11:54:37;;;;;;;3.80;2.70;;;19.40;50.60;;;;;;5073262;28;20076;-79
2022/04/23 11:57:16;;;;;;;5.32;3.05;;;19.50;48.20;;;;;;5091542;28;20509;-79
2022/04/23 11:59:46;;;;;;;3.88;3.28;;;19.40;46.70;;;;;;5090230;28;20075;-80
2022/04/23 12:02:18;;;;;;;3.35;2.50;;;19.30;48.10;;;;;;5090944;28;20045;-80
2022/04/23 12:04:45;;;;;;;5.18;3.78;;;19.20;47.70;;;;;;5109298;28;20277;-79
2022/04/23 12:07:11;;;;;;;5.85;3.17;;;19.20;48.10;;;;;;5089801;28;20499;-79
2022/04/23 12:10:03;;;;;;;5.20;3.22;;;19.20;48.20;;;;;;5091456;28;20039;-79
2022/04/23 12:12:30;;;;;;;5.32;3.20;;;19.20;45.40;;;;;;5074472;28;20062;-79
2022/04/23 12:14:59;;;;;;;10.52;3.72;;;19.20;47.10;;;;;;5070681;28;20047;-80
2022/04/23 12:17:30;;;;;;;3.72;2.60;;;19.20;46.90;;;;;;5090618;28;20066;-79
2022/04/23 12:20:08;;;;;;;3.42;2.75;;;19.30;46.60;;;;;;5089990;28;20044;-79
2022/04/23 12:22:33;;;;;;;3.40;3.00;;;19.40;46.50;;;;;;5109477;28;20470;-79
2022/04/23 12:25:29;;;;;;;3.63;2.97;;;19.50;46.50;;;;;;5108432;28;20127;-79
2022/04/23 12:27:56;;;;;;;4.25;2.95;;;19.60;44.70;;;;;;5107371;28;20112;-79
2022/04/23 12:42:05;;;;;;;4.80;2.95;;;20.00;45.60;;;;;;5107041;28;20059;-79
2022/04/23 12:44:37;;;;;;;3.65;2.78;;;19.90;43.90;;;;;;5108970;28;20055;-80
2022/04/23 12:47:05;;;;;;;3.13;2.27;;;19.80;44.80;;;;;;5108330;28;20089;-80
2022/04/23 12:50:00;;;;;;;3.78;2.85;;;19.90;44.20;;;;;;5089677;28;20043;-78
2022/04/23 12:52:40;;;;;;;3.65;3.05;;;19.80;42.50;;;;;;5090906;28;20043;-78
2022/04/23 12:55:17;;;;;;;3.42;2.30;;;19.80;44.40;;;;;;5057061;28;20047;-78
2022/04/23 12:57:50;;;;;;;4.00;2.33;;;19.90;43.50;;;;;;5073304;28;20105;-78
2022/04/23 13:00:25;;;;;;;;;;;20.00;43.80;;;;;;5090454;28;20043;-79
2022/04/23 13:03:02;;;;;;;2.95;2.20;;;20.10;40.60;;;;;;5071705;28;20275;-78
2022/04/23 13:05:28;;;;;;;4.28;2.63;;;20.10;44.30;;;;;;5089407;28;20043;-79
2022/04/23 13:10:39;;;;;;;4.40;2.40;;;20.20;43.80;;;;;;5110000;28;20047;-79
2022/04/23 13:13:09;;;;;;;4.53;2.83;;;20.20;43.70;;;;;;5111330;28;20398;-77
2022/04/23 13:15:36;;;;;;;3.50;2.28;;;20.20;42.90;;;;;;5091439;28;20047;-78
2022/04/23 13:18:06;;;;;;;2.25;2.05;;;20.10;42.90;;;;;;5093177;28;20043;-78
2022/04/23 13:20:32;;;;;;;3.53;2.63;;;20.10;42.60;;;;;;5091296;28;20047;-77
2022/04/23 13:23:01;;;;;;;4.22;2.97;;;20.10;42.80;;;;;;5111021;28;20039;-78
2022/04/23 13:25:28;;;;;;;4.47;2.40;;;20.20;42.70;;;;;;5091930;28;20115;-79
2022/04/23 13:27:54;;;;;;;6.55;2.80;;;20.30;42.90;;;;;;5109573;28;20051;-79
2022/04/23 13:30:20;;;;;;;4.10;2.00;;;20.40;42.90;;;;;;5074378;28;20043;-79
2022/04/23 13:32:46;;;;;;;3.42;2.03;;;20.40;42.40;;;;;;5089842;28;20051;-79